This is the latest recevied weather packets stored in our database for station/object GW1599. If no packets are shown the sender has not sent any weather packets the latest 10 day(s).
| Time | Temp. | Humidity | Pressure | Rain* | Wind** | Luminosity | Snow |
|---|---|---|---|---|---|---|---|
| 1777649615 | 15.56° C | 53% | 1014.5 hPa | 0 mm | - | - | - |
| 1777648171 | 15° C | 58% | 1014.9 hPa | 0 mm | - | - | - |
| 1777646744 | 14.44° C | 62% | 1015.2 hPa | 0 mm | - | - | - |
| 1777644932 | 13.33° C | 71% | 1015.5 hPa | 0 mm | - | - | - |
| 1777640613 | 7.22° C | 96% | 1015.5 hPa | 0 mm | - | - | - |
| 1777636650 | 2.22° C | 95% | 1016.2 hPa | 0 mm | - | - | - |
| 1777634140 | 1.67° C | 94% | 1016.2 hPa | 0 mm | - | - | - |
| 1777631268 | 1.67° C | 94% | 1016.5 hPa | 0 mm | - | - | - |
| 1777629089 | 1.67° C | 94% | 1016.5 hPa | 0 mm | - | - | - |
| 1777628750 | 2.22° C | 94% | 1016.5 hPa | 0 mm | - | - | - |
| 1777628362 | 2.22° C | 93% | 1016.5 hPa | 0 mm | - | - | - |
| 1777620444 | 2.78° C | 92% | 1016.5 hPa | 0 mm | - | - | - |
| 1777613961 | 3.89° C | 91% | 1017.2 hPa | 0 mm | - | - | - |
| 1777607483 | 5.56° C | 89% | 1017.9 hPa | 0 mm | - | - | - |
| 1777605694 | 5.56° C | 89% | 1017.9 hPa | 0 mm | - | - | - |
| 1777605327 | 5.56° C | 89% | 1017.9 hPa | 0 mm | - | - | - |
| 1777602431 | 6.67° C | 86% | 1017.9 hPa | 0 mm | - | - | - |
| 1777601753 | 7.22° C | 85% | 1017.9 hPa | 0 mm | - | - | - |
| 1777601372 | 7.78° C | 84% | 1017.6 hPa | 0 mm | - | - | - |
| 1777600669 | 7.78° C | 83% | 1017.9 hPa | 0 mm | - | - | - |
| 1777599562 | 8.33° C | 81% | 1017.2 hPa | 0 mm | - | - | - |
| 1777597785 | 9.44° C | 81% | 1016.9 hPa | 0 mm | - | - | - |
| 1777593794 | 11.11° C | 71% | 1015.9 hPa | 0 mm | - | - | - |
| 1777593442 | 11.11° C | 71% | 1015.9 hPa | 0 mm | - | - | - |
| 1777593078 | 11.11° C | 69% | 1015.9 hPa | 0 mm | - | - | - |
* Rain since midnight (hover to see other rain measurements)
** Current wind speed in m/s (hover to see current wind gust speed)